Time;durP1;ratioP1;P1;durP2;ratioP2;P2;SDS_P1;SDS_P2;PMS_P1;PMS_P2;Temp;Humidity;BMP_temperature;BMP_pressure;BME280_temperature;BME280_humidity;BME280_pressure;Samples;Min_cycle;Max_cycle;Signal;HPM_P1;HPM_P2
2023/01/03 00:03:33;;;;;;;5.93;3.60;;;;;;;8.80;100.00;101588.78;8336556;28;20044;-51
2023/01/03 00:07:33;;;;;;;10.18;3.58;;;;;;;8.90;100.00;101587.19;8340899;28;20044;-52
2023/01/03 00:12:36;;;;;;;6.22;3.53;;;;;;;8.92;100.00;101587.97;8344236;28;20051;-52
2023/01/03 00:15:56;;;;;;;6.57;3.53;;;;;;;8.91;100.00;101595.19;8345124;28;20103;-51
2023/01/03 00:19:56;;;;;;;7.75;3.50;;;;;;;8.92;100.00;101590.66;8335391;28;20567;-52
2023/01/03 00:23:57;;;;;;;8.32;3.63;;;;;;;8.93;100.00;101595.06;8335803;28;20049;-52
2023/01/03 00:27:57;;;;;;;10.60;4.15;;;;;;;8.95;100.00;101598.53;8321835;28;20041;-49
2023/01/03 00:31:58;;;;;;;7.00;3.00;;;;;;;9.00;100.00;101599.09;8320615;28;20049;-49
2023/01/03 00:36:01;;;;;;;7.63;3.80;;;;;;;8.99;100.00;101591.97;8344149;28;20028;-52
2023/01/03 00:40:03;;;;;;;6.40;3.42;;;;;;;9.09;100.00;101601.19;8333683;28;20068;-52
2023/01/03 00:44:04;;;;;;;10.93;3.75;;;;;;;9.07;100.00;101597.72;8313779;28;20119;-51
2023/01/03 00:48:04;;;;;;;6.63;3.58;;;;;;;9.01;100.00;101600.81;8307793;28;20048;-52
2023/01/03 00:52:05;;;;;;;6.80;3.88;;;;;;;9.00;100.00;101612.59;8311219;28;20033;-51
2023/01/03 00:56:08;;;;;;;8.73;3.58;;;;;;;8.85;100.00;101608.22;8334225;28;20039;-48
2023/01/03 01:00:08;;;;;;;7.38;3.97;;;;;;;8.78;100.00;101615.00;8336322;28;20063;-50
2023/01/03 01:04:13;;;;;;;11.00;3.72;;;;;;;8.72;100.00;101624.34;8343044;28;20040;-50
2023/01/03 01:08:13;;;;;;;10.90;3.53;;;;;;;8.67;100.00;101614.84;8327217;28;20512;-47
2023/01/03 01:12:13;;;;;;;5.35;3.72;;;;;;;8.65;100.00;101611.38;8327156;28;20111;-47
2023/01/03 01:16:17;;;;;;;9.50;3.30;;;;;;;8.65;100.00;101630.25;8327677;28;20067;-58
2023/01/03 01:20:18;;;;;;;6.05;4.03;;;;;;;8.62;100.00;101639.41;8339026;28;20511;-57
2023/01/03 01:24:20;;;;;;;13.07;3.75;;;;;;;8.65;100.00;101643.72;8343705;28;20041;-57
2023/01/03 01:28:20;;;;;;;7.00;3.55;;;;;;;8.62;100.00;101643.91;8339801;28;20509;-55
2023/01/03 01:32:20;;;;;;;7.90;3.28;;;;;;;8.58;100.00;101653.19;8330012;28;20048;-57
2023/01/03 01:36:25;;;;;;;7.07;3.20;;;;;;;8.59;100.00;101650.41;8335966;28;20502;-47
2023/01/03 01:40:26;;;;;;;10.25;3.67;;;;;;;8.67;100.00;101663.38;8333351;28;20128;-48
2023/01/03 01:44:54;;;;;;;8.02;3.83;;;;;;;8.75;100.00;101663.75;8342360;28;20557;-51
2023/01/03 01:48:59;;;;;;;9.02;3.42;;;;;;;8.80;100.00;101662.47;8337088;28;20177;-48
2023/01/03 01:57:21;;;;;;;9.75;3.53;;;;;;;8.79;100.00;101667.97;8316462;28;20916;-48
2023/01/03 02:01:23;;;;;;;5.43;3.33;;;;;;;8.79;100.00;101673.34;8315912;28;20046;-49
2023/01/03 02:05:25;;;;;;;5.38;3.17;;;;;;;8.84;100.00;101682.84;8317067;28;20518;-49
2023/01/03 02:09:25;;;;;;;10.43;3.90;;;;;;;8.77;100.00;101684.25;8316504;28;20038;-49
2023/01/03 02:13:38;;;;;;;8.95;3.72;;;;;;;8.74;100.00;101686.25;8317181;28;20651;-47
2023/01/03 02:18:08;;;;;;;13.90;4.70;;;;;;;8.74;100.00;101691.66;8315406;28;20520;-50
2023/01/03 02:27:13;;;;;;;11.68;3.60;;;;;;;8.72;100.00;101693.59;8402169;27;20385;-49
2023/01/03 02:31:24;;;;;;;10.65;4.40;;;;;;;8.66;100.00;101691.31;8399697;27;20041;-50
2023/01/03 02:40:07;;;;;;;9.90;5.20;;;;;;;8.41;100.00;101691.13;8351296;27;20726;-49
2023/01/03 02:48:35;;;;;;;8.85;5.40;;;;;;;8.25;100.00;101687.69;8349857;27;20373;-49
2023/01/03 02:52:38;;;;;;;12.38;5.50;;;;;;;8.21;100.00;101697.78;8355428;28;20122;-48
2023/01/03 02:56:47;;;;;;;15.40;5.57;;;;;;;8.18;100.00;101697.09;8383025;28;20128;-48
2023/01/03 03:00:54;;;;;;;11.63;4.75;;;;;;;7.97;100.00;101694.75;8363747;28;20070;-50
2023/01/03 03:04:56;;;;;;;9.80;4.93;;;;;;;7.64;100.00;101696.88;8350046;28;20041;-48
2023/01/03 03:08:57;;;;;;;6.20;4.75;;;;;;;7.61;100.00;101696.19;8349098;28;20076;-46
2023/01/03 03:13:19;;;;;;;9.25;4.68;;;;;;;7.11;100.00;101691.13;8349549;28;20044;-48
2023/01/03 03:17:27;;;;;;;20.58;5.53;;;;;;;7.13;100.00;101697.28;8347377;28;20761;-47
2023/01/03 03:25:58;;;;;;;11.60;6.35;;;;;;;6.98;100.00;101700.00;8349300;28;20135;-51
2023/01/03 03:30:02;;;;;;;17.48;7.00;;;;;;;7.10;100.00;101689.41;8348804;28;20045;-50
2023/01/03 03:34:15;;;;;;;;;;;;;;;7.09;100.00;101693.06;8346420;28;20045;-50
2023/01/03 03:38:26;;;;;;;12.30;6.93;;;;;;;7.01;100.00;101691.75;8348658;28;19920;-51
2023/01/03 03:47:03;;;;;;;11.32;6.40;;;;;;;6.93;100.00;101685.97;8380571;28;20041;-50
2023/01/03 03:51:13;;;;;;;21.70;8.40;;;;;;;6.85;100.00;101686.41;8378449;28;20041;-55
2023/01/03 03:55:20;;;;;;;9.93;6.05;;;;;;;6.86;100.00;101688.13;8347104;28;20047;-57
2023/01/03 03:59:22;;;;;;;16.98;6.68;;;;;;;6.97;100.00;101699.13;8327586;28;20049;-57
2023/01/03 04:03:24;;;;;;;16.58;6.68;;;;;;;7.18;100.00;101691.63;8325607;28;20088;-57
2023/01/03 04:07:25;;;;;;;13.80;6.40;;;;;;;7.23;100.00;101706.53;8325018;28;20387;-56
2023/01/03 04:11:25;;;;;;;11.38;6.40;;;;;;;7.05;100.00;101702.22;8324301;28;20037;-56
2023/01/03 04:15:26;;;;;;;14.63;6.28;;;;;;;7.08;100.00;101696.66;8324986;28;20582;-57
2023/01/03 04:19:26;;;;;;;9.75;5.90;;;;;;;7.19;100.00;101696.91;8324692;28;20038;-57
2023/01/03 04:23:27;;;;;;;18.25;6.93;;;;;;;7.37;100.00;101697.66;8331408;28;20080;-53
2023/01/03 04:27:27;;;;;;;13.35;6.47;;;;;;;7.33;100.00;101696.09;8354858;28;20060;-54
2023/01/03 04:31:28;;;;;;;9.75;5.88;;;;;;;7.42;100.00;101693.75;8356539;28;20076;-57
2023/01/03 04:35:28;;;;;;;12.38;6.68;;;;;;;7.67;100.00;101694.00;8356784;28;20047;-57
2023/01/03 04:39:29;;;;;;;11.25;5.40;;;;;;;7.86;100.00;101696.41;8353379;28;20530;-55
2023/01/03 04:44:00;;;;;;;11.15;4.97;;;;;;;7.86;100.00;101697.28;8324306;28;20065;-57
2023/01/03 04:47:52;;;;;;;18.13;4.25;;;;;;;7.95;100.00;101694.03;8322730;28;20037;-56
2023/01/03 04:51:52;;;;;;;8.80;3.92;;;;;;;8.07;100.00;101695.94;8349277;28;20048;-55
2023/01/03 04:55:55;;;;;;;6.85;3.42;;;;;;;8.09;100.00;101683.22;8356933;28;20091;-56
2023/01/03 04:59:56;;;;;;;11.82;3.35;;;;;;;8.14;100.00;101690.19;8356107;28;20029;-57
2023/01/03 05:03:58;;;;;;;5.00;3.00;;;;;;;8.17;100.00;101674.66;8356435;28;20090;-57
2023/01/03 05:08:02;;;;;;;6.28;2.63;;;;;;;8.37;100.00;101676.13;8356456;28;20044;-56
2023/01/03 05:12:04;;;;;;;3.72;2.58;;;;;;;8.43;100.00;101675.75;8355916;28;20132;-54
2023/01/03 05:16:07;;;;;;;9.10;2.60;;;;;;;8.44;100.00;101667.56;8329295;28;20034;-56
2023/01/03 05:26:00;;;;;;;6.72;3.75;;;;;;;8.21;100.00;101672.66;8348688;28;20060;-56
2023/01/03 05:28:52;;;;;;;7.60;3.60;;;;;;;8.05;100.00;101665.53;8355827;28;20041;-57
2023/01/03 05:32:53;;;;;;;11.40;4.33;;;;;;;7.96;100.00;101676.88;8340467;28;20167;-54
2023/01/03 05:36:53;;;;;;;8.25;3.90;;;;;;;7.83;100.00;101683.13;8340986;28;20280;-58
2023/01/03 05:40:53;;;;;;;10.80;4.18;;;;;;;7.65;100.00;101693.22;8343234;28;20134;-57
2023/01/03 05:44:54;;;;;;;5.70;2.97;;;;;;;7.57;100.00;101678.50;8357401;28;20049;-57
2023/01/03 05:48:54;;;;;;;5.68;3.15;;;;;;;7.53;100.00;101683.19;8357509;28;20060;-57
2023/01/03 05:52:55;;;;;;;2.72;2.15;;;;;;;7.55;100.00;101680.41;8357278;28;20103;-57
2023/01/03 05:56:55;;;;;;;5.22;2.10;;;;;;;7.62;100.00;101674.56;8346835;28;20518;-55
2023/01/03 06:00:55;;;;;;;7.00;2.30;;;;;;;7.79;100.00;101686.97;8352822;28;20033;-57
2023/01/03 06:04:56;;;;;;;8.00;2.75;;;;;;;7.83;100.00;101686.69;8353040;28;20052;-55
2023/01/03 06:08:58;;;;;;;8.88;2.80;;;;;;;7.76;100.00;101685.34;8349452;28;20163;-54
2023/01/03 06:12:59;;;;;;;5.47;2.63;;;;;;;7.79;100.00;101689.69;8356604;28;20037;-56
2023/01/03 06:18:01;;;;;;;7.72;2.90;;;;;;;7.77;100.00;101691.59;8351706;28;20033;-57
2023/01/03 06:21:20;;;;;;;10.52;3.15;;;;;;;7.75;100.00;101688.97;8306205;28;20494;-56
2023/01/03 06:25:21;;;;;;;6.47;3.10;;;;;;;7.75;100.00;101685.44;8316914;28;20463;-56
2023/01/03 06:29:22;;;;;;;4.70;3.58;;;;;;;7.76;100.00;101690.75;8313995;28;20068;-57
2023/01/03 06:33:22;;;;;;;5.55;2.95;;;;;;;7.78;100.00;101688.78;8292625;28;20061;-56
2023/01/03 06:37:23;;;;;;;6.43;2.75;;;;;;;7.76;100.00;101690.75;8322915;28;20542;-57
2023/01/03 06:41:23;;;;;;;4.15;3.22;;;;;;;7.76;100.00;101689.84;8321953;28;20095;-56
2023/01/03 06:54:06;;;;;;;7.03;4.03;;;;;;;7.16;100.00;101697.09;8350072;28;20440;-53
2023/01/03 06:58:07;;;;;;;5.57;3.90;;;;;;;6.73;100.00;101705.03;8353865;28;20115;-56
2023/01/03 07:02:08;;;;;;;7.75;4.30;;;;;;;6.39;100.00;101687.28;8354863;28;20044;-57
2023/01/03 07:06:08;;;;;;;7.22;5.13;;;;;;;6.31;100.00;101702.09;8354886;28;20515;-56
2023/01/03 07:10:09;;;;;;;7.82;4.65;;;;;;;6.27;100.00;101696.03;8353370;28;20029;-57
2023/01/03 07:14:11;;;;;;;8.75;4.57;;;;;;;6.24;100.00;101704.25;8357594;28;20068;-57
2023/01/03 07:18:11;;;;;;;9.43;4.80;;;;;;;6.22;100.00;101700.75;8357490;28;20119;-57
2023/01/03 07:22:11;;;;;;;6.55;4.75;;;;;;;6.35;100.00;101707.22;8357383;28;20040;-57
2023/01/03 07:26:12;;;;;;;6.72;4.50;;;;;;;6.33;100.00;101722.53;8355034;28;20039;-57
2023/01/03 07:30:13;;;;;;;7.45;4.38;;;;;;;6.25;100.00;101716.72;8357073;28;20052;-56
2023/01/03 07:34:13;;;;;;;8.40;5.22;;;;;;;6.23;100.00;101720.44;8359175;28;20040;-57
2023/01/03 07:38:14;;;;;;;10.88;5.38;;;;;;;6.17;100.00;101721.66;8363159;28;20037;-57
2023/01/03 07:43:46;;;;;;;11.18;4.72;;;;;;;6.23;100.00;101725.81;8363904;28;20383;-57
2023/01/03 07:46:35;;;;;;;7.30;4.95;;;;;;;6.40;100.00;101733.81;8362482;28;20040;-56
2023/01/03 07:50:36;;;;;;;9.05;4.70;;;;;;;6.33;100.00;101732.41;8360586;28;20506;-56
2023/01/03 07:54:37;;;;;;;11.77;6.10;;;;;;;6.43;100.00;101728.28;8345553;28;20073;-56
2023/01/03 07:58:39;;;;;;;7.43;4.82;;;;;;;6.35;100.00;101720.66;8345850;28;20037;-57
2023/01/03 08:02:39;;;;;;;9.13;5.65;;;;;;;6.39;100.00;101716.81;8343734;28;20046;-57
2023/01/03 08:06:39;;;;;;;9.60;5.60;;;;;;;6.44;100.00;101736.25;8310768;28;20491;-57
2023/01/03 08:15:00;;;;;;;22.08;10.32;;;;;;;6.58;100.00;101733.66;8315550;28;20037;-57
2023/01/03 08:19:00;;;;;;;15.32;7.13;;;;;;;6.61;100.00;101736.16;8353703;28;20127;-55
2023/01/03 08:23:01;;;;;;;9.77;6.13;;;;;;;6.71;100.00;101740.06;8353190;28;20065;-57
2023/01/03 08:27:03;;;;;;;9.27;4.85;;;;;;;7.07;100.00;101729.91;8343910;28;20438;-57
2023/01/03 08:31:09;;;;;;;7.47;4.25;;;;;;;7.37;100.00;101729.94;8340599;28;20528;-57
2023/01/03 08:35:10;;;;;;;7.63;3.95;;;;;;;7.65;100.00;101730.88;8340403;28;20037;-55
2023/01/03 08:39:15;;;;;;;7.90;3.55;;;;;;;7.93;100.00;101733.63;8314009;28;20092;-56
2023/01/03 08:43:16;;;;;;;5.68;3.20;;;;;;;8.25;100.00;101736.19;8335130;28;20371;-57
2023/01/03 08:47:17;;;;;;;6.68;2.60;;;;;;;9.16;97.13;101738.25;8358144;28;20600;-53
2023/01/03 08:51:17;;;;;;;3.38;2.35;;;;;;;10.41;90.46;101748.41;8357779;28;20441;-57
2023/01/03 08:55:18;;;;;;;6.75;2.20;;;;;;;11.26;85.07;101748.41;8360040;28;20052;-57
2023/01/03 08:59:18;;;;;;;5.00;2.45;;;;;;;11.72;82.71;101752.94;8358781;28;20125;-56
2023/01/03 09:03:19;;;;;;;4.75;1.90;;;;;;;10.93;84.05;101746.38;8355797;28;20037;-57
2023/01/03 09:07:19;;;;;;;9.68;2.45;;;;;;;10.08;90.01;101756.19;8350505;28;20037;-54
2023/01/03 09:11:20;;;;;;;5.97;2.40;;;;;;;10.38;90.07;101754.03;8332132;28;20037;-54
2023/01/03 09:15:21;;;;;;;3.35;1.83;;;;;;;11.11;87.89;101745.00;8352844;28;20036;-56
2023/01/03 09:19:21;;;;;;;5.93;1.90;;;;;;;12.38;81.00;101740.53;8354996;28;21086;-57
2023/01/03 09:23:22;;;;;;;3.40;1.25;;;;;;;11.22;84.23;101750.47;8340375;28;20532;-56
2023/01/03 09:27:22;;;;;;;4.35;1.83;;;;;;;10.84;87.70;101756.97;8358004;28;20037;-53
2023/01/03 09:31:23;;;;;;;7.15;1.55;;;;;;;12.43;83.89;101749.13;8357395;28;20529;-53
2023/01/03 09:35:23;;;;;;;4.63;1.52;;;;;;;13.95;76.46;101748.06;8352683;28;20445;-52
2023/01/03 09:39:24;;;;;;;3.38;1.30;;;;;;;13.11;79.67;101758.88;8354250;28;20041;-51
2023/01/03 09:43:33;;;;;;;3.85;1.30;;;;;;;13.68;77.25;101758.56;8357153;28;20049;-52
2023/01/03 09:47:36;;;;;;;3.60;1.00;;;;;;;14.92;73.71;101743.88;8355077;28;20041;-51
2023/01/03 10:03:42;;;;;;;3.38;1.30;;;;;;;12.27;81.93;101748.63;8348908;28;20033;-51
2023/01/03 10:09:40;;;;;;;3.35;0.90;;;;;;;16.99;66.21;101749.47;8315218;28;20984;-51
2023/01/03 10:14:11;;;;;;;1.17;0.80;;;;;;;17.51;64.54;101751.47;8314837;28;20045;-52
2023/01/03 10:18:36;;;;;;;2.80;1.00;;;;;;;17.68;63.91;101757.97;8317385;28;20042;-50
2023/01/03 10:22:38;;;;;;;3.67;0.93;;;;;;;17.61;63.00;101741.31;8318212;28;20418;-53
2023/01/03 10:26:38;;;;;;;3.28;0.93;;;;;;;17.40;63.91;101744.31;8319172;28;20046;-52
2023/01/03 10:31:19;;;;;;;4.93;0.77;;;;;;;17.84;62.47;101742.53;8319113;28;20406;-52
2023/01/03 10:35:24;;;;;;;1.55;0.70;;;;;;;17.94;62.36;101737.84;8312750;28;20322;-51
2023/01/03 10:39:30;;;;;;;6.07;1.17;;;;;;;18.12;61.40;101741.44;8318656;28;20554;-53
2023/01/03 10:43:38;;;;;;;3.80;0.77;;;;;;;17.80;61.65;101730.19;8319180;28;20100;-53
2023/01/03 10:47:38;;;;;;;2.80;0.70;;;;;;;17.72;61.92;101727.41;8313307;28;20042;-52
2023/01/03 10:51:48;;;;;;;5.70;0.85;;;;;;;17.93;61.44;101730.63;8333766;28;20045;-53
2023/01/03 10:55:52;;;;;;;1.48;0.60;;;;;;;17.54;61.93;101719.19;8290903;28;20121;-52
2023/01/03 10:59:52;;;;;;;3.83;0.83;;;;;;;16.04;65.22;101711.56;8316312;28;20045;-53
2023/01/03 11:04:08;;;;;;;3.22;0.60;;;;;;;16.31;65.28;101719.81;8297854;28;20046;-52
2023/01/03 11:08:22;;;;;;;4.55;1.13;;;;;;;16.88;63.99;101708.69;8317705;28;20034;-51
2023/01/03 11:12:32;;;;;;;2.90;0.60;;;;;;;17.02;62.74;101710.91;8316915;28;20466;-52
2023/01/03 11:16:33;;;;;;;6.97;0.73;;;;;;;17.32;62.11;101718.75;8322812;28;20537;-52
2023/01/03 11:20:58;;;;;;;3.13;1.13;;;;;;;15.34;66.49;101717.31;8296016;28;20054;-52
2023/01/03 11:25:11;;;;;;;5.88;0.70;;;;;;;14.34;70.37;101730.16;8294773;28;20076;-52
2023/01/03 11:29:37;;;;;;;3.17;0.68;;;;;;;14.65;70.46;101727.31;8294585;28;20498;-52
2023/01/03 11:33:58;;;;;;;3.70;1.23;;;;;;;15.31;69.31;101723.03;8292981;28;20042;-52
2023/01/03 11:42:54;;;;;;;4.18;0.60;;;;;;;14.42;70.22;101717.59;8348659;27;20394;-51
2023/01/03 11:47:25;;;;;;;3.42;0.60;;;;;;;13.43;73.45;101726.31;8350249;28;20460;-50
2023/01/03 11:51:41;;;;;;;5.18;0.80;;;;;;;14.69;70.23;101708.81;8350827;28;20037;-50
2023/01/03 11:55:58;;;;;;;4.32;0.93;;;;;;;15.01;69.11;101694.00;8351574;28;20525;-52
2023/01/03 12:00:15;;;;;;;2.72;0.95;;;;;;;15.79;66.76;101690.34;8350849;28;20044;-51
2023/01/03 12:09:09;;;;;;;3.40;0.88;;;;;;;15.74;65.99;101680.72;8314187;27;20554;-51
2023/01/03 12:13:20;;;;;;;;;;;;;;;14.79;67.54;101682.50;8318631;28;20452;-50
2023/01/03 12:17:32;;;;;;;3.30;0.68;;;;;;;14.35;68.70;101672.88;8319533;28;20424;-51
2023/01/03 12:21:36;;;;;;;4.15;0.82;;;;;;;14.16;67.78;101678.22;8317980;28;20129;-51
2023/01/03 12:25:41;;;;;;;2.88;0.60;;;;;;;13.81;69.40;101677.69;8318555;28;20117;-51
2023/01/03 12:29:55;;;;;;;2.50;0.50;;;;;;;13.69;69.66;101681.47;8318693;28;20465;-52
2023/01/03 12:34:27;;;;;;;3.55;0.50;;;;;;;13.67;67.47;101668.00;8318704;28;20116;-50
2023/01/03 12:38:34;;;;;;;3.53;0.93;;;;;;;13.47;68.67;101668.00;8317353;28;20037;-52
2023/01/03 12:42:45;;;;;;;4.72;0.47;;;;;;;13.42;68.10;101659.41;8315964;28;20030;-49
2023/01/03 12:46:51;;;;;;;1.80;0.60;;;;;;;13.23;67.80;101670.09;8318221;28;20469;-49
2023/01/03 12:50:53;;;;;;;2.13;0.75;;;;;;;13.06;68.62;101657.06;8317254;28;20049;-50
2023/01/03 12:55:01;;;;;;;1.88;0.77;;;;;;;12.99;68.60;101648.56;8317949;28;20540;-50
2023/01/03 12:59:41;;;;;;;2.00;0.57;;;;;;;12.96;68.86;101666.97;8317612;28;20077;-48
2023/01/03 13:03:48;;;;;;;2.80;0.63;;;;;;;13.04;69.15;101664.47;8316823;28;20490;-49
2023/01/03 13:08:00;;;;;;;1.40;0.60;;;;;;;13.08;68.59;101655.94;8316730;28;20037;-51
2023/01/03 13:12:07;;;;;;;5.85;0.52;;;;;;;13.09;68.49;101659.53;8316552;28;20133;-50
2023/01/03 13:16:29;;;;;;;1.48;0.40;;;;;;;13.10;68.71;101658.53;8316146;28;20037;-51
2023/01/03 13:24:45;;;;;;;3.55;0.60;;;;;;;13.34;69.46;101661.91;8412098;27;20485;-53
2023/01/03 13:28:46;;;;;;;2.22;0.47;;;;;;;13.31;69.34;101657.59;8400742;27;20044;-52
2023/01/03 13:32:50;;;;;;;1.98;0.50;;;;;;;13.40;69.77;101655.94;8401644;27;20040;-49
2023/01/03 13:41:37;;;;;;;6.90;0.70;;;;;;;13.11;71.25;101661.13;8352295;27;20930;-52
2023/01/03 13:45:43;;;;;;;4.53;0.85;;;;;;;12.83;72.10;101655.38;8352035;28;20529;-50
2023/01/03 13:49:47;;;;;;;3.17;0.80;;;;;;;12.70;74.84;101660.09;8350622;28;20053;-50
2023/01/03 13:53:57;;;;;;;1.67;0.50;;;;;;;12.57;74.58;101654.84;8352259;28;20143;-50
2023/01/03 13:57:57;;;;;;;2.70;0.50;;;;;;;12.50;73.82;101655.47;8350958;28;20057;-51
2023/01/03 14:06:48;;;;;;;2.88;0.50;;;;;;;12.33;73.64;101658.66;8368143;27;20196;-51
2023/01/03 14:11:25;;;;;;;2.08;0.45;;;;;;;12.21;74.55;101662.38;8352567;28;20522;-47
2023/01/03 14:15:29;;;;;;;1.65;0.50;;;;;;;12.15;75.29;101662.84;8353975;28;20041;-50
2023/01/03 14:19:34;;;;;;;2.13;0.40;;;;;;;12.21;72.99;101663.22;8351822;28;20042;-47
2023/01/03 14:23:34;;;;;;;2.00;0.30;;;;;;;12.12;73.05;101657.69;8338251;28;20128;-51
2023/01/03 14:27:39;;;;;;;1.27;0.70;;;;;;;12.05;72.70;101651.91;8350708;28;20053;-51
2023/01/03 14:31:45;;;;;;;1.60;0.50;;;;;;;11.90;73.26;101653.97;8350297;28;20105;-53
2023/01/03 14:35:47;;;;;;;1.95;0.40;;;;;;;11.86;72.54;101667.88;8336671;28;20495;-51
2023/01/03 14:39:57;;;;;;;4.47;1.20;;;;;;;11.77;72.98;101661.34;8339752;28;20051;-51
2023/01/03 14:44:05;;;;;;;3.28;0.50;;;;;;;11.57;74.22;101662.00;8332305;28;20037;-55
2023/01/03 14:48:06;;;;;;;2.03;0.60;;;;;;;11.49;74.41;101664.44;8348472;28;20041;-56
2023/01/03 14:52:27;;;;;;;2.40;0.60;;;;;;;11.50;74.86;101676.16;8333041;28;20037;-57
2023/01/03 14:56:29;;;;;;;2.08;0.80;;;;;;;11.41;75.59;101677.69;8350950;28;20029;-56
2023/01/03 15:00:34;;;;;;;8.55;0.70;;;;;;;11.43;75.35;101681.16;8350200;28;20120;-57
2023/01/03 15:04:42;;;;;;;5.97;1.05;;;;;;;11.41;75.08;101677.69;8345381;28;20045;-54
2023/01/03 15:08:45;;;;;;;4.68;0.60;;;;;;;11.42;74.94;101684.84;8315800;28;20038;-57
2023/01/03 15:12:51;;;;;;;4.18;0.80;;;;;;;11.30;76.52;101676.78;8317004;28;20091;-57
2023/01/03 15:17:04;;;;;;;2.55;0.90;;;;;;;11.18;77.47;101681.31;8299892;28;20046;-57
2023/01/03 15:21:06;;;;;;;4.95;0.95;;;;;;;11.09;77.60;101681.13;8297574;28;20442;-57
2023/01/03 15:25:17;;;;;;;3.22;0.80;;;;;;;10.99;77.63;101675.56;8315640;28;20048;-55
2023/01/03 15:29:22;;;;;;;4.60;1.35;;;;;;;10.91;77.97;101672.56;8320533;28;20192;-57
2023/01/03 15:37:38;;;;;;;4.28;1.10;;;;;;;10.61;79.30;101677.50;8403873;27;20397;-57
2023/01/03 15:46:18;;;;;;;4.70;1.55;;;;;;;10.27;82.36;101683.66;8366501;28;20472;-57
2023/01/03 15:50:19;;;;;;;4.32;1.17;;;;;;;10.15;82.99;101678.28;8365834;28;20029;-57
2023/01/03 15:54:20;;;;;;;3.45;0.90;;;;;;;10.07;83.10;101673.41;8368292;28;20518;-57
2023/01/03 15:58:24;;;;;;;2.67;1.00;;;;;;;9.97;83.64;101672.28;8370685;28;20120;-56
2023/01/03 16:02:24;;;;;;;3.03;1.07;;;;;;;9.93;84.02;101662.69;8384575;28;20128;-57
2023/01/03 16:06:25;;;;;;;3.85;0.98;;;;;;;9.79;84.44;101674.44;8375201;28;20029;-56
2023/01/03 16:10:25;;;;;;;1.65;0.50;;;;;;;9.77;84.09;101667.44;8366561;28;20041;-57
2023/01/03 16:14:33;;;;;;;6.07;1.42;;;;;;;9.66;84.11;101673.59;8378190;28;20037;-56
2023/01/03 16:18:40;;;;;;;3.97;1.10;;;;;;;9.63;83.49;101678.31;8382658;28;20040;-56
2023/01/03 16:22:45;;;;;;;7.72;1.35;;;;;;;9.79;82.74;101685.25;8382829;28;20374;-57
2023/01/03 16:26:46;;;;;;;4.22;1.60;;;;;;;9.66;83.10;101683.50;8349681;28;20112;-55
2023/01/03 16:30:58;;;;;;;6.18;2.22;;;;;;;9.63;83.06;101678.31;8364135;28;20446;-54
2023/01/03 16:35:01;;;;;;;8.57;3.85;;;;;;;9.59;83.25;101676.81;8378842;28;20264;-56
2023/01/03 16:39:05;;;;;;;8.45;3.22;;;;;;;9.62;82.94;101676.59;8377565;28;20050;-55
2023/01/03 16:43:06;;;;;;;11.37;4.90;;;;;;;9.58;83.03;101680.50;8375259;28;20048;-56
2023/01/03 16:47:14;;;;;;;9.25;3.65;;;;;;;9.60;82.98;101678.53;8366227;28;20537;-56
2023/01/03 16:51:19;;;;;;;7.82;1.85;;;;;;;9.57;83.19;101679.63;8327743;28;20103;-56
2023/01/03 16:55:26;;;;;;;10.57;4.72;;;;;;;9.55;83.36;101675.31;8347324;28;20461;-57
2023/01/03 16:59:26;;;;;;;7.97;4.35;;;;;;;9.44;84.14;101677.88;8367762;28;20090;-54
2023/01/03 17:03:27;;;;;;;7.38;6.13;;;;;;;9.37;84.81;101668.47;8339716;28;20033;-56
2023/01/03 17:07:28;;;;;;;7.78;1.50;;;;;;;9.40;84.77;101670.97;8339428;28;20052;-53
2023/01/03 17:11:30;;;;;;;5.68;1.30;;;;;;;9.40;84.82;101668.25;8335088;28;20510;-56
2023/01/03 17:15:30;;;;;;;7.00;1.20;;;;;;;9.35;85.04;101678.50;8337085;28;20037;-56
2023/01/03 17:19:33;;;;;;;5.35;1.65;;;;;;;9.40;85.12;101676.34;8336707;28;20040;-55
2023/01/03 17:23:38;;;;;;;6.05;1.23;;;;;;;9.34;85.43;101676.78;8340817;28;20037;-56
2023/01/03 17:27:38;;;;;;;4.50;1.40;;;;;;;9.30;85.74;101684.19;8335973;28;20089;-57
2023/01/03 17:31:38;;;;;;;6.00;1.60;;;;;;;9.25;85.75;101666.59;8338238;28;20037;-56
2023/01/03 17:35:39;;;;;;;4.13;1.58;;;;;;;9.15;86.73;101676.31;8321031;28;20061;-57
2023/01/03 17:39:39;;;;;;;4.07;1.63;;;;;;;9.10;86.79;101673.91;8322768;28;20591;-56
2023/01/03 17:43:40;;;;;;;5.40;1.70;;;;;;;9.02;87.40;101670.84;8318446;28;20044;-54
2023/01/03 17:52:05;;;;;;;16.20;5.22;;;;;;;9.08;87.57;101685.75;8320139;28;20041;-56
2023/01/03 17:56:05;;;;;;;21.10;6.97;;;;;;;9.04;87.99;101684.25;8321243;28;20053;-57
2023/01/03 18:00:20;;;;;;;15.63;8.23;;;;;;;9.15;87.44;101687.94;8324749;28;20269;-57
2023/01/03 18:04:22;;;;;;;7.80;2.25;;;;;;;9.25;86.76;101678.28;8325250;28;20034;-56
2023/01/03 18:08:24;;;;;;;7.00;1.80;;;;;;;9.31;86.14;101668.88;8315578;28;20053;-54
2023/01/03 18:12:25;;;;;;;7.82;1.40;;;;;;;9.35;85.51;101665.00;8324654;28;20513;-57
2023/01/03 18:16:26;;;;;;;6.93;1.90;;;;;;;9.37;85.32;101663.06;8332437;28;20601;-57
2023/01/03 18:20:26;;;;;;;5.70;1.40;;;;;;;9.39;85.19;101669.22;8298229;28;20065;-57
2023/01/03 18:24:29;;;;;;;3.85;1.05;;;;;;;9.41;84.58;101660.06;8315364;28;20037;-51
2023/01/03 18:28:30;;;;;;;4.97;1.42;;;;;;;9.32;85.01;101655.28;8312795;28;20044;-57
2023/01/03 18:32:33;;;;;;;7.05;1.27;;;;;;;9.31;85.02;101655.41;8363955;28;20036;-57
2023/01/03 18:36:38;;;;;;;2.97;0.90;;;;;;;9.29;84.81;101647.41;8383054;28;20170;-56
2023/01/03 18:40:39;;;;;;;5.22;1.48;;;;;;;9.28;85.15;101631.31;8371181;28;20044;-57
2023/01/03 18:44:40;;;;;;;5.28;1.02;;;;;;;9.37;84.39;101633.38;8353416;28;20063;-55
2023/01/03 18:48:41;;;;;;;9.73;1.40;;;;;;;9.43;84.04;101627.56;8354516;28;20510;-56
2023/01/03 18:52:41;;;;;;;6.13;1.20;;;;;;;9.44;84.34;101618.50;8350771;28;20048;-57
2023/01/03 18:56:42;;;;;;;9.48;1.15;;;;;;;9.45;84.25;101620.22;8350780;28;20037;-57
2023/01/03 19:00:44;;;;;;;2.90;1.17;;;;;;;9.37;84.62;101614.50;8344980;28;20063;-57
2023/01/03 19:04:45;;;;;;;3.67;1.25;;;;;;;9.21;85.26;101621.94;8338719;28;20040;-56
2023/01/03 19:08:46;;;;;;;6.72;1.20;;;;;;;9.19;85.91;101613.94;8347589;28;20048;-54
2023/01/03 19:12:48;;;;;;;5.45;1.20;;;;;;;9.02;87.15;101605.25;8352623;28;20051;-57
2023/01/03 19:16:48;;;;;;;5.03;1.63;;;;;;;8.90;87.73;101595.28;8353570;28;20434;-56
2023/01/03 19:20:49;;;;;;;6.57;1.38;;;;;;;8.88;88.47;101581.91;8353787;28;20068;-55
2023/01/03 19:24:53;;;;;;;8.15;2.40;;;;;;;8.84;88.75;101571.47;8354008;28;20472;-57
2023/01/03 19:28:57;;;;;;;10.53;2.40;;;;;;;8.91;88.54;101572.75;8353259;28;20068;-57
2023/01/03 19:32:58;;;;;;;5.32;1.60;;;;;;;8.92;89.06;101561.00;8349846;28;20043;-54
2023/01/03 19:36:59;;;;;;;5.20;1.48;;;;;;;8.78;89.74;101553.00;8353366;28;20061;-57
2023/01/03 19:40:59;;;;;;;4.53;1.25;;;;;;;8.79;90.10;101552.03;8341694;28;20091;-52
2023/01/03 19:45:06;;;;;;;4.38;1.50;;;;;;;8.71;90.94;101546.28;8348302;28;20053;-54
2023/01/03 19:49:13;;;;;;;9.25;1.65;;;;;;;8.74;90.79;101541.53;8347319;28;20110;-57
2023/01/03 19:53:14;;;;;;;5.85;1.25;;;;;;;8.76;90.89;101541.44;8353047;28;20036;-57
2023/01/03 19:57:21;;;;;;;6.97;1.58;;;;;;;8.77;90.82;101535.06;8353015;28;20048;-57
2023/01/03 20:01:21;;;;;;;8.55;1.17;;;;;;;8.66;91.71;101534.94;8331388;28;20156;-55
2023/01/03 20:05:25;;;;;;;12.98;1.45;;;;;;;8.65;91.93;101538.59;8339685;28;20055;-58
2023/01/03 20:09:25;;;;;;;5.13;1.70;;;;;;;8.59;92.35;101537.19;8322286;28;20174;-56
2023/01/03 20:13:27;;;;;;;6.78;1.75;;;;;;;8.53;92.79;101539.41;8333557;28;20038;-55
2023/01/03 20:17:27;;;;;;;6.40;1.90;;;;;;;8.47;93.18;101547.91;8335200;28;20044;-54
2023/01/03 20:21:30;;;;;;;11.43;1.70;;;;;;;8.36;93.38;101550.47;8320113;28;20124;-54
2023/01/03 20:25:35;;;;;;;6.38;1.70;;;;;;;8.42;93.36;101558.16;8325628;28;20041;-52
2023/01/03 20:29:36;;;;;;;9.65;2.20;;;;;;;8.27;94.13;101534.91;8342626;28;20060;-57
2023/01/03 20:33:36;;;;;;;12.55;1.73;;;;;;;8.27;94.70;101516.06;8346645;28;20041;-55
2023/01/03 20:37:36;;;;;;;8.98;1.58;;;;;;;8.29;94.49;101522.22;8353494;28;20425;-57